createdAt,value
2018-10-18T00:00:50.270Z,9.90
2018-10-18T00:01:54.347Z,9.60
2018-10-18T00:02:58.585Z,9.08
2018-10-18T00:04:02.736Z,10.50
2018-10-18T00:05:07.674Z,10.18
2018-10-18T00:06:11.896Z,9.93
2018-10-18T00:07:15.908Z,9.60
2018-10-18T00:08:19.957Z,9.47
2018-10-18T00:09:24.050Z,9.40
2018-10-18T00:10:28.198Z,9.70
2018-10-18T00:11:32.412Z,9.70
2018-10-18T00:12:36.714Z,9.47
2018-10-18T00:13:40.818Z,9.87
2018-10-18T00:14:44.916Z,9.23
2018-10-18T00:15:49.240Z,11.40
2018-10-18T00:16:53.384Z,9.50
2018-10-18T00:17:57.538Z,9.53
2018-10-18T00:19:01.680Z,9.23
2018-10-18T00:20:06.289Z,9.05
2018-10-18T00:21:10.371Z,9.03
2018-10-18T00:22:14.480Z,9.08
2018-10-18T00:23:18.519Z,9.38
2018-10-18T00:24:22.671Z,9.35
2018-10-18T00:25:26.734Z,9.90
2018-10-18T00:26:30.876Z,9.53
2018-10-18T00:27:34.993Z,8.93
2018-10-18T00:28:39.252Z,9.80
2018-10-18T00:29:43.354Z,8.97
2018-10-18T00:30:47.478Z,8.93
2018-10-18T00:31:51.583Z,9.10
2018-10-18T00:32:55.644Z,9.00
2018-10-18T00:33:59.758Z,12.17
2018-10-18T00:35:03.857Z,10.27
2018-10-18T00:36:08.082Z,10.05
2018-10-18T00:37:12.158Z,9.30
2018-10-18T00:38:16.332Z,9.23
2018-10-18T00:39:20.384Z,9.30
2018-10-18T00:40:24.493Z,9.30
2018-10-18T00:41:28.544Z,9.53
2018-10-18T00:42:32.649Z,9.68
2018-10-18T00:43:37.217Z,8.98
2018-10-18T00:44:41.361Z,9.45
2018-10-18T00:45:45.491Z,9.88
2018-10-18T00:46:49.622Z,11.15
2018-10-18T00:47:53.810Z,9.50
2018-10-18T00:48:57.883Z,9.20
2018-10-18T00:50:02.032Z,8.43
2018-10-18T00:51:06.247Z,9.35
2018-10-18T00:52:10.371Z,9.05
2018-10-18T00:53:14.470Z,10.07
2018-10-18T00:54:18.524Z,8.97
2018-10-18T00:55:22.735Z,9.15
2018-10-18T00:56:26.817Z,8.88
2018-10-18T00:57:30.944Z,8.43
2018-10-18T00:58:35.107Z,8.83
2018-10-18T00:59:39.180Z,9.43
2018-10-18T01:00:43.248Z,9.43
2018-10-18T01:01:47.329Z,8.70
2018-10-18T01:02:51.392Z,9.10
2018-10-18T01:03:55.549Z,8.87
2018-10-18T01:04:59.589Z,9.10
2018-10-18T01:06:03.758Z,9.38
2018-10-18T01:07:07.940Z,8.90
2018-10-18T01:08:12.183Z,10.00
2018-10-18T01:09:16.193Z,8.98
2018-10-18T01:10:20.325Z,9.18
2018-10-18T01:11:24.420Z,9.43
2018-10-18T01:12:28.588Z,9.53
2018-10-18T01:13:32.555Z,9.87
2018-10-18T01:14:36.698Z,10.00
2018-10-18T01:15:40.851Z,9.55
2018-10-18T01:16:45.002Z,9.73
2018-10-18T01:17:49.055Z,8.93
2018-10-18T01:18:53.126Z,8.97
2018-10-18T01:19:57.202Z,9.63
2018-10-18T01:21:01.280Z,9.30
2018-10-18T01:22:06.483Z,9.03
2018-10-18T01:23:10.515Z,9.73
2018-10-18T01:24:14.630Z,9.70
2018-10-18T01:25:18.610Z,9.60
2018-10-18T01:26:22.744Z,9.70
2018-10-18T01:27:26.814Z,9.77
2018-10-18T01:28:30.848Z,9.83
2018-10-18T01:29:35.028Z,9.88
2018-10-18T01:30:44.182Z,9.85
2018-10-18T01:31:54.189Z,9.23
2018-10-18T01:33:04.357Z,8.67
2018-10-18T01:34:14.640Z,9.85
2018-10-18T01:35:24.852Z,9.27
2018-10-18T01:36:28.962Z,9.35
2018-10-18T01:37:33.093Z,9.93
2018-10-18T01:38:37.184Z,10.00
2018-10-18T01:39:41.300Z,10.00
2018-10-18T01:40:45.555Z,10.28
2018-10-18T01:41:49.706Z,10.18
2018-10-18T01:42:53.808Z,10.08
2018-10-18T01:43:58.027Z,9.70
2018-10-18T01:45:02.122Z,10.08
2018-10-18T01:46:06.698Z,10.05
2018-10-18T01:47:10.824Z,10.35
2018-10-18T01:48:14.928Z,11.00
2018-10-18T01:49:18.918Z,12.57
2018-10-18T01:50:23.060Z,11.30
2018-10-18T01:51:27.167Z,10.57
2018-10-18T01:52:31.256Z,10.50
2018-10-18T01:53:35.406Z,10.30
2018-10-18T01:54:39.561Z,10.85
2018-10-18T01:55:43.622Z,11.67
2018-10-18T01:56:47.890Z,9.60
2018-10-18T01:57:52.008Z,9.90
2018-10-18T01:58:56.094Z,9.57
2018-10-18T02:00:00.278Z,10.65
2018-10-18T02:01:04.366Z,9.60
2018-10-18T02:02:08.466Z,8.67
2018-10-18T02:03:12.572Z,8.93
2018-10-18T02:04:16.758Z,8.85
2018-10-18T02:05:20.843Z,9.75
2018-10-18T02:06:24.891Z,8.83
2018-10-18T02:07:28.998Z,8.78
2018-10-18T02:08:33.079Z,8.85
2018-10-18T02:09:37.144Z,9.60
2018-10-18T02:10:41.342Z,9.65
2018-10-18T02:11:45.423Z,10.30
2018-10-18T02:12:49.573Z,10.13
2018-10-18T02:13:53.697Z,10.23
2018-10-18T02:14:57.723Z,10.83
2018-10-18T02:16:08.682Z,10.23
2018-10-18T02:17:12.796Z,9.43
2018-10-18T02:18:17.002Z,9.83
2018-10-18T02:19:21.091Z,8.80
2018-10-18T02:20:25.020Z,9.47
2018-10-18T02:21:29.163Z,9.30
2018-10-18T02:22:33.192Z,9.80
2018-10-18T02:23:37.412Z,9.53
2018-10-18T02:24:41.467Z,9.40
2018-10-18T02:25:45.688Z,9.60
2018-10-18T02:26:49.782Z,8.68
2018-10-18T02:27:53.839Z,9.15
2018-10-18T02:28:58.014Z,9.38
2018-10-18T02:30:02.199Z,9.10
2018-10-18T02:31:06.583Z,8.48
2018-10-18T02:32:10.651Z,8.03
2018-10-18T02:33:14.708Z,8.58
2018-10-18T02:34:18.786Z,8.40
2018-10-18T02:35:22.912Z,9.40
2018-10-18T02:36:27.012Z,8.93
2018-10-18T02:37:31.127Z,9.25
2018-10-18T02:38:35.221Z,8.67
2018-10-18T02:39:39.292Z,8.87
2018-10-18T02:40:43.357Z,9.07
2018-10-18T02:41:47.608Z,8.60
2018-10-18T02:42:51.736Z,9.05
2018-10-18T02:43:55.792Z,8.80
2018-10-18T02:44:59.894Z,8.67
2018-10-18T02:46:04.071Z,8.90
2018-10-18T02:47:08.249Z,9.40
2018-10-18T02:48:12.467Z,8.75
2018-10-18T02:49:16.551Z,9.48
2018-10-18T02:50:20.682Z,8.93
2018-10-18T02:51:24.772Z,8.20
2018-10-18T02:52:28.868Z,8.78
2018-10-18T02:53:33.022Z,8.55
2018-10-18T02:54:37.186Z,8.98
2018-10-18T02:55:41.364Z,8.95
2018-10-18T02:56:45.563Z,8.27
2018-10-18T02:57:49.653Z,9.10
2018-10-18T02:58:53.779Z,8.60
2018-10-18T02:59:57.917Z,8.85
2018-10-18T03:01:02.042Z,8.67
2018-10-18T03:02:06.566Z,8.23
2018-10-18T03:03:10.704Z,8.97
2018-10-18T03:04:14.802Z,8.67
2018-10-18T03:05:19.806Z,9.20
2018-10-18T03:06:23.957Z,8.78
2018-10-18T03:07:28.071Z,8.87
2018-10-18T03:08:32.184Z,8.10
2018-10-18T03:09:36.238Z,8.47
2018-10-18T03:10:40.410Z,8.57
2018-10-18T03:11:44.544Z,9.63
2018-10-18T03:12:48.684Z,8.70
2018-10-18T03:13:52.792Z,8.18
2018-10-18T03:14:56.938Z,9.53
2018-10-18T03:16:01.334Z,9.13
2018-10-18T03:17:05.587Z,8.80
2018-10-18T03:18:09.794Z,9.20
2018-10-18T03:19:13.817Z,8.37
2018-10-18T03:20:17.935Z,8.40
2018-10-18T03:21:22.055Z,7.57
2018-10-18T03:22:26.197Z,9.43
2018-10-18T03:23:30.281Z,9.33
2018-10-18T03:24:34.342Z,8.73
2018-10-18T03:25:38.517Z,9.07
2018-10-18T03:26:42.642Z,8.88
2018-10-18T03:27:46.797Z,8.27
2018-10-18T03:28:50.827Z,8.53
2018-10-18T03:29:54.997Z,8.70
2018-10-18T03:30:58.936Z,9.20
2018-10-18T03:32:02.969Z,8.47
2018-10-18T03:33:07.182Z,8.40
2018-10-18T03:34:11.340Z,8.33
2018-10-18T03:35:15.474Z,7.42
2018-10-18T03:36:19.669Z,8.25
2018-10-18T03:37:23.723Z,7.97
2018-10-18T03:38:27.875Z,8.95
2018-10-18T03:39:31.976Z,8.60
2018-10-18T03:40:36.072Z,9.00
2018-10-18T03:41:40.187Z,8.25
2018-10-18T03:42:44.304Z,8.63
2018-10-18T03:43:48.416Z,8.03
2018-10-18T03:44:52.514Z,8.53
2018-10-18T03:45:56.716Z,9.47
2018-10-18T03:47:00.883Z,8.67
2018-10-18T03:48:05.040Z,8.90
2018-10-18T03:49:09.024Z,9.30
2018-10-18T03:50:13.132Z,8.43
2018-10-18T03:51:17.305Z,9.13
2018-10-18T03:52:21.524Z,9.13
2018-10-18T03:53:25.597Z,9.27
2018-10-18T03:54:29.754Z,8.80
2018-10-18T03:55:33.904Z,8.63
2018-10-18T03:56:37.996Z,8.90
2018-10-18T03:57:42.124Z,9.23
2018-10-18T03:58:46.274Z,9.08
2018-10-18T03:59:50.473Z,10.13
2018-10-18T04:00:54.561Z,9.38
2018-10-18T04:01:58.698Z,10.38
2018-10-18T04:03:02.905Z,9.63
2018-10-18T04:04:06.994Z,8.95
2018-10-18T04:05:11.294Z,8.08
2018-10-18T04:06:16.445Z,8.93
2018-10-18T04:07:20.464Z,9.10
2018-10-18T04:08:24.664Z,8.55
2018-10-18T04:09:28.817Z,8.88
2018-10-18T04:10:32.928Z,10.00
2018-10-18T04:11:37.154Z,11.50
2018-10-18T04:12:41.403Z,10.97
2018-10-18T04:13:45.492Z,8.70
2018-10-18T04:14:49.614Z,10.78
2018-10-18T04:15:53.774Z,11.80
2018-10-18T04:16:57.888Z,9.17
2018-10-18T04:18:02.315Z,10.00
2018-10-18T04:19:06.526Z,9.80
2018-10-18T04:20:10.686Z,9.23
2018-10-18T04:21:14.855Z,9.38
2018-10-18T04:22:18.995Z,9.18
2018-10-18T04:23:30.471Z,10.20
2018-10-18T04:24:34.580Z,12.23
2018-10-18T04:25:38.744Z,9.85
2018-10-18T04:26:42.794Z,8.90
2018-10-18T04:27:46.952Z,9.70
2018-10-18T04:28:51.034Z,9.60
2018-10-18T04:29:55.196Z,9.93
2018-10-18T04:30:59.564Z,10.10
2018-10-18T04:32:03.703Z,10.43
2018-10-18T04:33:07.849Z,11.60
2018-10-18T04:34:11.992Z,8.90
2018-10-18T04:35:16.232Z,11.07
2018-10-18T04:36:20.499Z,12.70
2018-10-18T04:37:24.536Z,8.80
2018-10-18T04:38:28.747Z,8.38
2018-10-18T04:39:32.857Z,11.12
2018-10-18T04:40:37.044Z,9.27
2018-10-18T04:41:41.246Z,9.23
2018-10-18T04:42:45.308Z,8.95
2018-10-18T04:43:49.443Z,9.90
2018-10-18T04:44:53.605Z,10.03
2018-10-18T04:45:57.688Z,9.20
2018-10-18T04:47:01.896Z,9.53
2018-10-18T04:48:06.111Z,10.23
2018-10-18T04:49:10.189Z,10.03
2018-10-18T04:50:14.330Z,9.83
2018-10-18T04:51:18.504Z,10.43
2018-10-18T04:52:22.584Z,11.70
2018-10-18T04:53:26.848Z,10.10
2018-10-18T04:54:30.954Z,10.05
2018-10-18T04:55:35.143Z,9.53
2018-10-18T04:56:39.310Z,8.87
2018-10-18T04:57:43.365Z,9.40
2018-10-18T04:58:47.534Z,9.40
2018-10-18T04:59:51.669Z,9.13
2018-10-18T05:00:55.887Z,9.83
2018-10-18T05:01:59.912Z,8.93
2018-10-18T05:03:04.081Z,9.35
2018-10-18T05:04:08.176Z,9.38
2018-10-18T05:05:23.382Z,9.85
2018-10-18T05:06:27.571Z,9.73
2018-10-18T05:07:31.707Z,9.78
2018-10-18T05:08:35.841Z,9.77
2018-10-18T05:09:39.980Z,10.50
2018-10-18T05:10:44.228Z,9.47
2018-10-18T05:11:48.445Z,9.70
2018-10-18T05:12:52.524Z,9.33
2018-10-18T05:13:56.747Z,10.13
2018-10-18T05:15:00.945Z,11.30
2018-10-18T05:16:05.537Z,10.37
2018-10-18T05:17:09.633Z,9.07
2018-10-18T05:18:13.815Z,10.07
2018-10-18T05:19:17.998Z,9.90
2018-10-18T05:20:22.018Z,9.37
2018-10-18T05:21:26.207Z,9.28
2018-10-18T05:22:30.558Z,9.30
2018-10-18T05:23:34.719Z,9.98
2018-10-18T05:24:38.809Z,9.75
2018-10-18T05:25:43.476Z,9.53
2018-10-18T05:26:47.618Z,9.70
2018-10-18T05:27:51.694Z,9.15
2018-10-18T05:28:55.808Z,10.50
2018-10-18T05:29:59.912Z,9.70
2018-10-18T05:31:04.132Z,10.83
2018-10-18T05:32:08.197Z,10.37
2018-10-18T05:33:12.346Z,9.60
2018-10-18T05:34:16.463Z,10.03
2018-10-18T05:35:20.707Z,10.77
2018-10-18T05:36:24.764Z,10.20
2018-10-18T05:37:28.883Z,13.78
2018-10-18T05:38:33.084Z,12.07
2018-10-18T05:39:37.122Z,10.47
2018-10-18T05:40:41.284Z,11.43
2018-10-18T05:41:45.540Z,10.83
2018-10-18T05:42:49.923Z,12.57
2018-10-18T05:43:54.126Z,10.57
2018-10-18T05:44:58.301Z,10.07
2018-10-18T05:46:02.491Z,11.28
2018-10-18T05:47:06.585Z,10.58
2018-10-18T05:48:10.584Z,12.93
2018-10-18T05:49:14.818Z,10.48
2018-10-18T05:50:18.898Z,10.35
2018-10-18T05:51:23.015Z,10.18
2018-10-18T05:52:27.233Z,10.50
2018-10-18T05:53:31.421Z,9.43
2018-10-18T05:54:35.536Z,10.47
2018-10-18T05:55:39.657Z,9.93
2018-10-18T05:56:43.752Z,11.28
2018-10-18T05:57:47.830Z,12.07
2018-10-18T05:58:51.977Z,10.70
2018-10-18T05:59:56.138Z,10.97
2018-10-18T06:01:00.375Z,10.58
2018-10-18T06:02:04.862Z,10.43
2018-10-18T06:03:08.954Z,10.18
2018-10-18T06:04:13.093Z,11.70
2018-10-18T06:05:17.978Z,10.47
2018-10-18T06:06:22.220Z,10.27
2018-10-18T06:07:26.467Z,14.30
2018-10-18T06:08:30.944Z,13.00
2018-10-18T06:09:35.396Z,11.48
2018-10-18T06:10:50.898Z,13.25
2018-10-18T06:11:55.090Z,12.93
2018-10-18T06:12:59.285Z,10.47
2018-10-18T06:14:03.417Z,10.00
2018-10-18T06:15:07.537Z,10.20
2018-10-18T06:16:11.824Z,9.90
2018-10-18T06:17:16.102Z,10.40
2018-10-18T06:18:20.382Z,10.30
2018-10-18T06:19:24.616Z,11.97
2018-10-18T06:20:28.819Z,11.50
2018-10-18T06:21:32.957Z,11.10
2018-10-18T06:22:37.156Z,11.87
2018-10-18T06:23:41.228Z,14.17
2018-10-18T06:24:45.350Z,11.23
2018-10-18T06:25:49.556Z,11.77
2018-10-18T06:26:53.836Z,13.13
2018-10-18T06:27:57.991Z,11.65
2018-10-18T06:29:02.128Z,12.13
2018-10-18T06:30:08.575Z,13.30
2018-10-18T06:31:12.736Z,12.63
2018-10-18T06:32:16.816Z,12.28
2018-10-18T06:33:21.007Z,18.48
2018-10-18T06:34:25.231Z,13.63
2018-10-18T06:35:29.436Z,12.67
2018-10-18T06:36:33.523Z,14.37
2018-10-18T06:37:38.146Z,15.30
2018-10-18T06:38:42.420Z,13.30
2018-10-18T06:39:46.578Z,13.30
2018-10-18T06:40:50.760Z,16.53
2018-10-18T06:41:54.906Z,12.20
2018-10-18T06:42:59.090Z,14.63
2018-10-18T06:44:03.360Z,21.30
2018-10-18T06:45:09.533Z,17.30
2018-10-18T06:46:14.559Z,14.67
2018-10-18T06:47:18.851Z,15.03
2018-10-18T06:48:23.117Z,15.88
2018-10-18T06:49:27.345Z,15.43
2018-10-18T06:50:31.464Z,14.83
2018-10-18T06:51:35.570Z,17.20
2018-10-18T06:52:39.822Z,16.12
2018-10-18T06:53:43.975Z,15.88
2018-10-18T06:54:48.215Z,16.80
2018-10-18T06:55:52.402Z,16.17
2018-10-18T06:56:56.537Z,17.23
2018-10-18T06:58:00.644Z,17.40
2018-10-18T06:59:04.822Z,19.20
2018-10-18T07:00:11.371Z,17.48
2018-10-18T07:01:15.541Z,19.10
2018-10-18T07:02:19.784Z,19.67
2018-10-18T07:03:24.059Z,20.40
2018-10-18T07:04:28.212Z,21.60
2018-10-18T07:05:32.316Z,21.07
2018-10-18T07:06:36.504Z,19.73
2018-10-18T07:07:40.634Z,19.02
2018-10-18T07:08:44.773Z,19.07
2018-10-18T07:09:48.877Z,20.77
2018-10-18T07:10:53.063Z,22.22
2018-10-18T07:11:57.184Z,20.17
2018-10-18T07:13:01.413Z,20.05
2018-10-18T07:14:05.697Z,20.23
2018-10-18T07:15:10.881Z,20.85
2018-10-18T07:16:15.244Z,20.17
2018-10-18T07:17:19.428Z,20.40
2018-10-18T07:18:23.797Z,21.30
2018-10-18T07:19:27.942Z,21.80
2018-10-18T07:20:32.141Z,21.47
2018-10-18T07:21:36.349Z,20.37
2018-10-18T07:22:42.018Z,22.03
2018-10-18T07:23:46.490Z,21.03
2018-10-18T07:24:53.235Z,20.50
2018-10-18T07:25:57.418Z,22.80
2018-10-18T07:27:01.836Z,19.93
2018-10-18T07:28:07.535Z,21.50
2018-10-18T07:29:12.952Z,21.30
2018-10-18T07:30:17.680Z,22.60
2018-10-18T07:31:22.649Z,19.07
2018-10-18T07:32:26.987Z,19.23
2018-10-18T07:33:31.262Z,21.68
2018-10-18T07:34:35.460Z,20.27
2018-10-18T07:35:39.688Z,19.45
2018-10-18T07:36:43.814Z,21.13
2018-10-18T07:37:48.018Z,21.10
2018-10-18T07:38:52.188Z,21.73
2018-10-18T07:40:03.185Z,21.60
2018-10-18T07:41:14.089Z,19.20
2018-10-18T07:42:18.386Z,17.17
2018-10-18T07:43:22.451Z,17.05
2018-10-18T07:44:26.675Z,18.43
2018-10-18T07:45:30.850Z,16.97
2018-10-18T07:46:35.050Z,18.73
2018-10-18T07:47:39.320Z,21.60
2018-10-18T07:48:43.481Z,19.60
2018-10-18T07:49:47.653Z,17.52
2018-10-18T07:50:51.753Z,19.75
2018-10-18T07:51:55.948Z,19.23
2018-10-18T07:53:00.113Z,19.12
2018-10-18T07:54:04.416Z,18.97
2018-10-18T07:55:09.422Z,20.13
2018-10-18T07:56:13.707Z,19.12
2018-10-18T07:57:17.846Z,18.47
2018-10-18T07:58:22.143Z,18.00
2018-10-18T07:59:26.434Z,19.00
2018-10-18T08:00:30.634Z,18.57
2018-10-18T08:01:34.753Z,18.63
2018-10-18T08:02:39.057Z,19.40
2018-10-18T08:03:43.249Z,19.55
2018-10-18T08:04:47.449Z,21.67
2018-10-18T08:05:51.553Z,18.47
2018-10-18T08:06:55.782Z,19.57
2018-10-18T08:07:59.842Z,21.17
2018-10-18T08:09:06.476Z,19.67
2018-10-18T08:10:15.053Z,22.60
2018-10-18T08:11:19.346Z,19.82
2018-10-18T08:12:23.556Z,20.95
2018-10-18T08:13:27.772Z,20.88
2018-10-18T08:14:31.996Z,20.53
2018-10-18T08:15:36.178Z,20.60
2018-10-18T08:16:40.456Z,21.10
2018-10-18T08:17:45.170Z,22.63
2018-10-18T08:18:49.319Z,21.47
2018-10-18T08:19:53.415Z,20.17
2018-10-18T08:20:57.611Z,23.17
2018-10-18T08:22:01.812Z,20.53
2018-10-18T08:23:06.056Z,19.87
2018-10-18T08:24:10.268Z,21.87
2018-10-18T08:25:14.459Z,19.83
2018-10-18T08:26:18.617Z,21.23
2018-10-18T08:27:22.831Z,20.17
2018-10-18T08:28:27.060Z,22.47
2018-10-18T08:29:31.259Z,22.32
2018-10-18T08:30:35.463Z,22.48
2018-10-18T08:31:39.600Z,22.17
2018-10-18T08:32:43.736Z,28.50
2018-10-18T08:33:47.968Z,23.92
2018-10-18T08:34:52.175Z,22.87
2018-10-18T08:35:56.365Z,22.40
2018-10-18T08:37:00.565Z,21.07
2018-10-18T08:38:05.568Z,22.30
2018-10-18T08:39:10.856Z,22.82
2018-10-18T08:40:15.003Z,23.42
2018-10-18T08:41:19.208Z,21.80
2018-10-18T08:42:23.359Z,23.80
2018-10-18T08:43:28.006Z,21.53
2018-10-18T08:44:32.263Z,23.20
2018-10-18T08:45:36.452Z,21.97
2018-10-18T08:46:40.718Z,23.60
2018-10-18T08:47:44.976Z,23.53
2018-10-18T08:48:49.178Z,26.80
2018-10-18T08:49:53.583Z,25.85
2018-10-18T08:50:57.826Z,26.33
2018-10-18T08:52:02.052Z,28.20
2018-10-18T08:53:06.281Z,26.30
2018-10-18T08:54:10.462Z,27.58
2018-10-18T08:55:14.621Z,26.25
2018-10-18T08:56:18.851Z,26.10
2018-10-18T08:57:23.187Z,26.33
2018-10-18T08:58:27.350Z,25.10
2018-10-18T08:59:31.533Z,26.33
2018-10-18T09:00:35.731Z,26.57
2018-10-18T09:01:39.876Z,28.93
2018-10-18T09:02:44.086Z,26.20
2018-10-18T09:03:48.222Z,25.15
2018-10-18T09:04:52.469Z,25.73
2018-10-18T09:05:56.608Z,24.87
2018-10-18T09:07:00.987Z,28.33
2018-10-18T09:08:05.350Z,27.57
2018-10-18T09:09:10.010Z,26.13
2018-10-18T09:10:14.096Z,27.57
2018-10-18T09:11:18.212Z,27.80
2018-10-18T09:12:22.455Z,27.00
2018-10-18T09:13:26.644Z,25.43
2018-10-18T09:14:30.786Z,25.97
2018-10-18T09:15:34.905Z,26.55
2018-10-18T09:16:39.096Z,26.33
2018-10-18T09:17:43.308Z,26.93
2018-10-18T09:18:47.683Z,26.42
2018-10-18T09:19:51.882Z,27.55
2018-10-18T09:20:56.082Z,28.67
2018-10-18T09:22:00.264Z,28.17
2018-10-18T09:23:04.410Z,27.73
2018-10-18T09:24:08.871Z,30.60
2018-10-18T09:25:13.036Z,27.20
2018-10-18T09:26:17.535Z,28.00
2018-10-18T09:27:21.603Z,27.42
2018-10-18T09:28:25.756Z,27.50
2018-10-18T09:29:29.847Z,27.40
2018-10-18T09:30:34.151Z,29.07
2018-10-18T09:31:38.336Z,29.03
2018-10-18T09:32:42.882Z,28.77
2018-10-18T09:33:46.997Z,28.30
2018-10-18T09:34:51.214Z,28.30
2018-10-18T09:35:55.391Z,27.90
2018-10-18T09:36:59.690Z,28.93
2018-10-18T09:38:04.096Z,29.20
2018-10-18T09:39:08.930Z,28.77
2018-10-18T09:40:13.017Z,29.07
2018-10-18T09:41:17.751Z,26.77
2018-10-18T09:42:21.997Z,28.97
2018-10-18T09:43:26.286Z,28.37
2018-10-18T09:44:30.587Z,28.67
2018-10-18T09:45:34.765Z,27.87
2018-10-18T09:46:39.263Z,28.87
2018-10-18T09:47:44.008Z,26.37
2018-10-18T09:48:48.329Z,26.60
2018-10-18T09:49:52.562Z,25.33
2018-10-18T09:50:56.926Z,27.20
2018-10-18T09:52:01.246Z,25.80
2018-10-18T09:53:05.929Z,25.00
2018-10-18T09:54:10.218Z,24.57
2018-10-18T09:55:14.557Z,24.10
2018-10-18T09:56:19.681Z,24.27
2018-10-18T09:57:23.786Z,23.13
2018-10-18T09:58:28.057Z,24.47
2018-10-18T09:59:32.258Z,23.53
2018-10-18T10:00:41.946Z,22.73
2018-10-18T10:01:51.469Z,21.13
2018-10-18T10:03:01.024Z,24.17
2018-10-18T10:04:05.218Z,22.73
2018-10-18T10:05:10.031Z,22.97
2018-10-18T10:06:14.164Z,23.13
2018-10-18T10:07:18.814Z,25.17
2018-10-18T10:08:22.910Z,23.63
2018-10-18T10:09:27.174Z,24.30
2018-10-18T10:10:31.481Z,23.57
2018-10-18T10:11:35.721Z,25.20
2018-10-18T10:12:39.941Z,22.97
2018-10-18T10:13:44.160Z,24.10
2018-10-18T10:14:48.410Z,23.30
2018-10-18T10:15:52.548Z,23.10
2018-10-18T10:16:56.960Z,21.50
2018-10-18T10:18:01.215Z,23.83
2018-10-18T10:19:05.839Z,24.03
2018-10-18T10:20:09.958Z,22.33
2018-10-18T10:21:14.289Z,25.53
2018-10-18T10:22:18.517Z,23.17
2018-10-18T10:23:22.655Z,24.03
2018-10-18T10:24:26.868Z,23.63
2018-10-18T10:25:31.029Z,24.10
2018-10-18T10:26:35.269Z,23.23
2018-10-18T10:27:39.429Z,21.87
2018-10-18T10:28:43.630Z,22.53
2018-10-18T10:29:47.900Z,25.27
2018-10-18T10:30:52.084Z,24.17
2018-10-18T10:31:56.214Z,23.77
2018-10-18T10:33:00.388Z,24.10
2018-10-18T10:34:04.606Z,22.97
2018-10-18T10:35:09.079Z,22.90
2018-10-18T10:36:13.188Z,22.87
2018-10-18T10:37:17.549Z,22.30
2018-10-18T10:38:21.746Z,22.37
2018-10-18T10:39:26.289Z,22.63
2018-10-18T10:40:30.452Z,22.13
2018-10-18T10:41:34.711Z,23.83
2018-10-18T10:42:39.773Z,23.43
2018-10-18T10:43:43.898Z,22.33
2018-10-18T10:44:47.795Z,23.53
2018-10-18T10:45:52.059Z,23.40
2018-10-18T10:46:56.159Z,22.10
2018-10-18T10:48:00.350Z,23.03
2018-10-18T10:49:05.009Z,24.17
2018-10-18T10:50:09.881Z,21.33
2018-10-18T10:51:13.931Z,22.00
2018-10-18T10:52:18.151Z,22.23
2018-10-18T10:53:22.513Z,21.90
2018-10-18T10:54:26.839Z,21.13
2018-10-18T10:55:31.022Z,22.27
2018-10-18T10:56:35.221Z,22.20
2018-10-18T10:57:39.413Z,20.83
2018-10-18T10:58:43.686Z,20.50
2018-10-18T10:59:47.941Z,22.30
2018-10-18T11:01:09.897Z,22.20
2018-10-18T11:02:14.648Z,21.73
2018-10-18T11:03:18.787Z,22.67
2018-10-18T11:04:22.884Z,22.90
2018-10-18T11:05:27.039Z,22.07
2018-10-18T11:06:31.169Z,22.20
2018-10-18T11:07:35.279Z,22.17
2018-10-18T11:08:39.474Z,20.70
2018-10-18T11:09:43.795Z,20.40
2018-10-18T11:10:47.843Z,20.43
2018-10-18T11:11:51.960Z,19.90
2018-10-18T11:12:56.051Z,20.03
2018-10-18T11:14:00.240Z,19.87
2018-10-18T11:15:04.740Z,19.70
2018-10-18T11:16:09.354Z,18.87
2018-10-18T11:17:13.605Z,19.43
2018-10-18T11:18:17.960Z,20.57
2018-10-18T11:19:22.100Z,20.10
2018-10-18T11:20:26.200Z,20.60
2018-10-18T11:21:30.503Z,20.87
2018-10-18T11:22:34.683Z,20.33
2018-10-18T11:23:38.779Z,18.73
2018-10-18T11:24:43.054Z,20.57
2018-10-18T11:25:47.012Z,19.30
2018-10-18T11:26:51.221Z,18.57
2018-10-18T11:27:55.411Z,18.93
2018-10-18T11:28:59.533Z,19.20
2018-10-18T11:30:03.879Z,18.53
2018-10-18T11:31:08.027Z,17.57
2018-10-18T11:32:12.210Z,18.00
2018-10-18T11:33:16.460Z,18.40
2018-10-18T11:34:20.726Z,18.27
2018-10-18T11:35:24.887Z,18.47
2018-10-18T11:36:29.032Z,17.87
2018-10-18T11:37:33.167Z,18.23
2018-10-18T11:38:37.251Z,17.13
2018-10-18T11:39:41.389Z,17.37
2018-10-18T11:40:45.965Z,17.27
2018-10-18T11:41:50.285Z,17.20
2018-10-18T11:42:54.598Z,17.83
2018-10-18T11:43:59.076Z,16.87
2018-10-18T11:45:03.381Z,17.30
2018-10-18T11:46:07.561Z,15.60
2018-10-18T11:47:12.440Z,15.77
2018-10-18T11:48:17.016Z,16.83
2018-10-18T11:49:21.799Z,16.17
2018-10-18T11:50:26.306Z,16.57
2018-10-18T11:51:30.620Z,16.73
2018-10-18T11:52:34.902Z,16.70
2018-10-18T11:53:39.123Z,17.03
2018-10-18T11:54:43.542Z,16.10
2018-10-18T11:55:47.920Z,17.57
2018-10-18T11:56:52.314Z,16.83
2018-10-18T11:57:56.598Z,17.53
2018-10-18T11:59:00.831Z,16.50
2018-10-18T12:00:05.244Z,15.98
2018-10-18T12:01:09.439Z,16.60
2018-10-18T12:02:13.781Z,15.23
2018-10-18T12:03:17.740Z,14.93
2018-10-18T12:04:21.948Z,15.20
2018-10-18T12:05:26.117Z,14.00
2018-10-18T12:06:30.425Z,13.87
2018-10-18T12:07:34.615Z,13.80
2018-10-18T12:08:38.761Z,13.60
2018-10-18T12:09:42.954Z,13.87
2018-10-18T12:10:47.102Z,13.17
2018-10-18T12:11:51.276Z,13.73
2018-10-18T12:12:55.438Z,12.95
2018-10-18T12:13:59.641Z,14.05
2018-10-18T12:15:05.358Z,14.10
2018-10-18T12:16:09.723Z,12.93
2018-10-18T12:17:13.973Z,13.98
2018-10-18T12:18:18.139Z,12.47
2018-10-18T12:19:22.330Z,10.98
2018-10-18T12:20:26.425Z,11.12
2018-10-18T12:21:30.920Z,10.60
2018-10-18T12:22:35.134Z,11.93
2018-10-18T12:23:39.248Z,11.45
2018-10-18T12:24:43.418Z,11.60
2018-10-18T12:25:47.626Z,11.88
2018-10-18T12:26:52.075Z,11.30
2018-10-18T12:27:56.185Z,11.00
2018-10-18T12:29:00.387Z,10.73
2018-10-18T12:30:05.126Z,10.70
2018-10-18T12:31:09.268Z,10.47
2018-10-18T12:32:13.468Z,10.60
2018-10-18T12:33:17.682Z,10.28
2018-10-18T12:34:21.845Z,10.97
2018-10-18T12:35:25.930Z,10.73
2018-10-18T12:36:30.106Z,11.13
2018-10-18T12:37:34.384Z,10.47
2018-10-18T12:38:38.497Z,10.53
2018-10-18T12:39:42.806Z,10.37
2018-10-18T12:40:46.920Z,10.30
2018-10-18T12:41:51.143Z,9.90
2018-10-18T12:42:55.125Z,10.67
2018-10-18T12:43:59.320Z,10.87
2018-10-18T12:45:03.604Z,10.47
2018-10-18T12:46:08.062Z,10.80
2018-10-18T12:47:12.769Z,10.70
2018-10-18T12:48:17.076Z,11.20
2018-10-18T12:49:21.149Z,11.27
2018-10-18T12:50:25.321Z,10.47
2018-10-18T12:51:29.551Z,10.23
2018-10-18T12:52:33.853Z,10.73
2018-10-18T12:53:38.009Z,10.73
2018-10-18T12:54:42.163Z,10.13
2018-10-18T12:55:46.283Z,10.97
2018-10-18T12:56:50.572Z,10.67
2018-10-18T12:57:54.723Z,9.97
2018-10-18T12:58:58.873Z,10.70
2018-10-18T13:00:03.215Z,10.47
2018-10-18T13:01:07.250Z,9.83
2018-10-18T13:02:11.513Z,10.10
2018-10-18T13:03:15.660Z,10.83
2018-10-18T13:04:19.830Z,10.47
2018-10-18T13:05:23.971Z,10.47
2018-10-18T13:06:28.169Z,10.07
2018-10-18T13:07:32.420Z,10.50
2018-10-18T13:08:36.769Z,10.07
2018-10-18T13:09:41.008Z,10.47
2018-10-18T13:10:45.207Z,11.07
2018-10-18T13:11:49.593Z,11.23
2018-10-18T13:12:53.826Z,10.53
2018-10-18T13:13:58.009Z,11.60
2018-10-18T13:15:02.110Z,10.30
2018-10-18T13:16:06.369Z,10.43
2018-10-18T13:17:10.450Z,9.53
2018-10-18T13:18:14.799Z,9.63
2018-10-18T13:19:18.809Z,10.53
2018-10-18T13:20:22.978Z,9.50
2018-10-18T13:21:27.331Z,9.57
2018-10-18T13:22:31.556Z,11.20
2018-10-18T13:23:35.864Z,9.70
2018-10-18T13:24:40.212Z,10.10
2018-10-18T13:25:44.521Z,9.93
2018-10-18T13:26:48.889Z,10.37
2018-10-18T13:27:53.120Z,10.83
2018-10-18T13:28:57.343Z,10.93
2018-10-18T13:30:01.552Z,11.57
2018-10-18T13:31:05.828Z,11.90
2018-10-18T13:32:10.119Z,10.70
2018-10-18T13:33:14.179Z,10.63
2018-10-18T13:34:18.363Z,12.27
2018-10-18T13:35:22.733Z,11.50
2018-10-18T13:36:27.098Z,11.80
2018-10-18T13:37:31.455Z,11.23
2018-10-18T13:38:35.732Z,11.77
2018-10-18T13:39:39.939Z,11.27
2018-10-18T13:40:44.336Z,11.40
2018-10-18T13:41:48.566Z,11.23
2018-10-18T13:42:52.821Z,10.53
2018-10-18T13:43:57.352Z,11.17
2018-10-18T13:45:01.786Z,10.97
2018-10-18T13:46:06.254Z,11.40
2018-10-18T13:47:10.586Z,10.57
2018-10-18T13:48:14.958Z,11.23
2018-10-18T13:49:19.035Z,10.63
2018-10-18T13:50:23.482Z,12.53
2018-10-18T13:51:27.910Z,11.40
2018-10-18T13:52:32.237Z,11.43
2018-10-18T13:53:40.005Z,11.33
2018-10-18T13:54:44.315Z,12.07
2018-10-18T13:55:48.498Z,11.27
2018-10-18T13:56:52.657Z,11.50
2018-10-18T13:57:56.858Z,12.33
2018-10-18T13:59:01.031Z,12.53